sensor_id;sensor_type;location;lat;lon;timestamp;pressure;altitude;pressure_sealevel;temperature;humidity
64066;BME280;50318;54.760;9.408;2023-02-23T00:02:01;100761.84;;;11.37;68.54
64066;BME280;50318;54.760;9.408;2023-02-23T00:04:27;100763.38;;;11.38;68.50
64066;BME280;50318;54.760;9.408;2023-02-23T00:06:56;100765.19;;;11.42;68.61
64066;BME280;50318;54.760;9.408;2023-02-23T00:09:22;100774.81;;;11.46;68.74
64066;BME280;50318;54.760;9.408;2023-02-23T00:11:50;100760.94;;;11.50;68.58
64066;BME280;50318;54.760;9.408;2023-02-23T00:14:17;100763.84;;;11.46;68.78
64066;BME280;50318;54.760;9.408;2023-02-23T00:16:44;100754.38;;;11.47;68.81
64066;BME280;50318;54.760;9.408;2023-02-23T00:19:11;100761.41;;;11.48;68.62
64066;BME280;50318;54.760;9.408;2023-02-23T00:21:37;100767.50;;;11.52;68.97
64066;BME280;50318;54.760;9.408;2023-02-23T00:24:05;100758.66;;;11.48;68.92
64066;BME280;50318;54.760;9.408;2023-02-23T00:26:33;100767.50;;;11.52;69.09
64066;BME280;50318;54.760;9.408;2023-02-23T00:29:02;100760.50;;;11.51;68.92
64066;BME280;50318;54.760;9.408;2023-02-23T00:31:29;100756.81;;;11.45;69.10
64066;BME280;50318;54.760;9.408;2023-02-23T00:33:57;100752.53;;;11.44;68.79
64066;BME280;50318;54.760;9.408;2023-02-23T00:36:29;100751.31;;;11.45;68.92
64066;BME280;50318;54.760;9.408;2023-02-23T00:38:58;100749.50;;;11.42;69.06
64066;BME280;50318;54.760;9.408;2023-02-23T00:41:26;100752.25;;;11.42;69.27
64066;BME280;50318;54.760;9.408;2023-02-23T00:43:54;100756.50;;;11.43;69.14
64066;BME280;50318;54.760;9.408;2023-02-23T00:46:22;100747.66;;;11.39;69.35
64066;BME280;50318;54.760;9.408;2023-02-23T00:48:50;100758.34;;;11.46;69.17
64066;BME280;50318;54.760;9.408;2023-02-23T00:51:17;100751.31;;;11.45;69.33
64066;BME280;50318;54.760;9.408;2023-02-23T00:53:44;100754.22;;;11.51;69.02
64066;BME280;50318;54.760;9.408;2023-02-23T00:56:12;100752.25;;;11.51;69.50
64066;BME280;50318;54.760;9.408;2023-02-23T00:58:39;100744.00;;;11.51;68.85
64066;BME280;50318;54.760;9.408;2023-02-23T01:01:10;100751.78;;;11.53;69.30
64066;BME280;50318;54.760;9.408;2023-02-23T01:03:38;100746.75;;;11.51;69.28
64066;BME280;50318;54.760;9.408;2023-02-23T01:06:06;100746.13;;;11.47;69.31
64066;BME280;50318;54.760;9.408;2023-02-23T01:08:34;100740.34;;;11.45;69.37
64066;BME280;50318;54.760;9.408;2023-02-23T01:11:09;100737.59;;;11.45;69.29
64066;BME280;50318;54.760;9.408;2023-02-23T01:13:37;100732.41;;;11.47;69.50
64066;BME280;50318;54.760;9.408;2023-02-23T01:16:09;100736.69;;;11.48;69.47
64066;BME280;50318;54.760;9.408;2023-02-23T01:18:38;100732.09;;;11.45;69.60
64066;BME280;50318;54.760;9.408;2023-02-23T01:21:12;100733.63;;;11.46;69.43
64066;BME280;50318;54.760;9.408;2023-02-23T01:23:39;100734.38;;;11.47;69.48
64066;BME280;50318;54.760;9.408;2023-02-23T01:26:23;100739.13;;;11.46;69.68
64066;BME280;50318;54.760;9.408;2023-02-23T01:28:55;100740.34;;;11.45;69.63
64066;BME280;50318;54.760;9.408;2023-02-23T01:31:24;100744.91;;;11.48;69.56
64066;BME280;50318;54.760;9.408;2023-02-23T01:33:54;100739.28;;;11.52;69.60
64066;BME280;50318;54.760;9.408;2023-02-23T01:36:21;100728.13;;;11.46;69.61
64066;BME280;50318;54.760;9.408;2023-02-23T01:38:48;100736.22;;;11.50;69.62
64066;BME280;50318;54.760;9.408;2023-02-23T01:41:14;100734.84;;;11.54;69.56
64066;BME280;50318;54.760;9.408;2023-02-23T01:43:58;100729.66;;;11.56;69.59
64066;BME280;50318;54.760;9.408;2023-02-23T01:46:25;100718.53;;;11.51;69.42
64066;BME280;50318;54.760;9.408;2023-02-23T01:48:53;100723.88;;;11.54;69.45
64066;BME280;50318;54.760;9.408;2023-02-23T01:51:22;100732.09;;;11.54;69.60
64066;BME280;50318;54.760;9.408;2023-02-23T01:53:57;100728.78;;;11.59;69.44
64066;BME280;50318;54.760;9.408;2023-02-23T01:56:29;100720.97;;;11.58;69.27
64066;BME280;50318;54.760;9.408;2023-02-23T01:58:58;100723.59;;;11.61;69.10
64066;BME280;50318;54.760;9.408;2023-02-23T02:01:27;100717.63;;;11.63;69.33
64066;BME280;50318;54.760;9.408;2023-02-23T02:03:57;100723.59;;;11.61;69.21
64066;BME280;50318;54.760;9.408;2023-02-23T02:06:25;100717.78;;;11.59;69.62
64066;BME280;50318;54.760;9.408;2023-02-23T02:08:56;100708.44;;;11.57;69.49
64066;BME280;50318;54.760;9.408;2023-02-23T02:11:25;100709.09;;;11.61;69.33
64066;BME280;50318;54.760;9.408;2023-02-23T02:13:54;100705.88;;;11.62;69.71
64066;BME280;50318;54.760;9.408;2023-02-23T02:19:51;100700.22;;;11.66;69.83
64066;BME280;50318;54.760;9.408;2023-02-23T02:39:23;100697.63;;;11.72;69.76
64066;BME280;50318;54.760;9.408;2023-02-23T02:44:31;100702.97;;;11.75;69.90
64066;BME280;50318;54.760;9.408;2023-02-23T02:47:11;100701.75;;;11.76;69.87
64066;BME280;50318;54.760;9.408;2023-02-23T02:49:55;100701.28;;;11.78;70.05
64066;BME280;50318;54.760;9.408;2023-02-23T02:52:36;100697.94;;;11.74;70.20
64066;BME280;50318;54.760;9.408;2023-02-23T02:55:17;100705.59;;;11.79;70.23
64066;BME280;50318;54.760;9.408;2023-02-23T02:57:46;100702.38;;;11.80;69.99
64066;BME280;50318;54.760;9.408;2023-02-23T03:00:17;100697.66;;;11.81;70.14
64066;BME280;50318;54.760;9.408;2023-02-23T03:02:45;100691.09;;;11.78;70.37
64066;BME280;50318;54.760;9.408;2023-02-23T03:05:18;100696.91;;;11.80;70.32
64066;BME280;50318;54.760;9.408;2023-02-23T03:11:10;100689.53;;;11.77;70.01
64066;BME280;50318;54.760;9.408;2023-02-23T03:16:38;100681.63;;;11.79;70.31
64066;BME280;50318;54.760;9.408;2023-02-23T03:22:27;100684.69;;;11.81;70.55
64066;BME280;50318;54.760;9.408;2023-02-23T03:25:34;100694.03;;;11.84;70.70
64066;BME280;50318;54.760;9.408;2023-02-23T03:28:32;100683.03;;;11.84;71.08
64066;BME280;50318;54.760;9.408;2023-02-23T03:31:40;100688.53;;;11.84;71.01
64066;BME280;50318;54.760;9.408;2023-02-23T03:34:42;100686.97;;;11.83;71.00
64066;BME280;50318;54.760;9.408;2023-02-23T03:39:55;100677.34;;;11.78;71.29
64066;BME280;50318;54.760;9.408;2023-02-23T03:42:27;100695.09;;;11.86;71.37
64066;BME280;50318;54.760;9.408;2023-02-23T03:44:57;100680.59;;;11.86;71.10
64066;BME280;50318;54.760;9.408;2023-02-23T03:47:27;100684.84;;;11.87;71.46
64066;BME280;50318;54.760;9.408;2023-02-23T03:49:56;100689.72;;;11.92;71.01
64066;BME280;50318;54.760;9.408;2023-02-23T03:52:50;100690.50;;;11.92;71.49
64066;BME280;50318;54.760;9.408;2023-02-23T03:55:24;100687.75;;;11.83;71.21
64066;BME280;50318;54.760;9.408;2023-02-23T03:57:54;100694.94;;;11.90;71.27
64066;BME280;50318;54.760;9.408;2023-02-23T04:00:29;100696.44;;;11.91;71.49
64066;BME280;50318;54.760;9.408;2023-02-23T04:02:59;100689.59;;;11.86;71.38
64066;BME280;50318;54.760;9.408;2023-02-23T04:05:27;100698.75;;;11.92;71.54
64066;BME280;50318;54.760;9.408;2023-02-23T04:07:54;100701.50;;;11.92;71.78
64066;BME280;50318;54.760;9.408;2023-02-23T04:10:25;100706.69;;;11.90;71.93
64066;BME280;50318;54.760;9.408;2023-02-23T04:13:12;100693.25;;;11.83;71.67
64066;BME280;50318;54.760;9.408;2023-02-23T04:15:51;100700.13;;;11.88;71.63
64066;BME280;50318;54.760;9.408;2023-02-23T04:18:28;100690.03;;;11.85;71.91
64066;BME280;50318;54.760;9.408;2023-02-23T04:20:56;100694.03;;;11.84;71.94
64066;BME280;50318;54.760;9.408;2023-02-23T04:23:25;100693.84;;;11.87;72.24
64066;BME280;50318;54.760;9.408;2023-02-23T04:25:53;100683.91;;;11.81;71.79
64066;BME280;50318;54.760;9.408;2023-02-23T04:28:21;100693.25;;;11.83;72.22
64066;BME280;50318;54.760;9.408;2023-02-23T04:30:48;100698.13;;;11.79;72.29
64066;BME280;50318;54.760;9.408;2023-02-23T04:33:14;100703.16;;;11.81;72.60
64066;BME280;50318;54.760;9.408;2023-02-23T04:35:40;100694.91;;;11.81;72.38
64066;BME280;50318;54.760;9.408;2023-02-23T04:38:07;100691.41;;;11.80;72.25
64066;BME280;50318;54.760;9.408;2023-02-23T04:40:33;100694.03;;;11.84;72.74
64066;BME280;50318;54.760;9.408;2023-02-23T04:42:59;100691.84;;;11.79;72.25
64066;BME280;50318;54.760;9.408;2023-02-23T04:45:26;100681.16;;;11.72;72.81
64066;BME280;50318;54.760;9.408;2023-02-23T04:47:52;100679.94;;;11.63;72.86
64066;BME280;50318;54.760;9.408;2023-02-23T04:50:19;100702.22;;;11.75;73.00
64066;BME280;50318;54.760;9.408;2023-02-23T04:52:46;100689.09;;;11.69;72.71
64066;BME280;50318;54.760;9.408;2023-02-23T04:55:24;100684.97;;;11.65;72.48
64066;BME280;50318;54.760;9.408;2023-02-23T04:57:55;100686.50;;;11.66;72.49
64066;BME280;50318;54.760;9.408;2023-02-23T05:00:24;100688.63;;;11.62;72.70
64066;BME280;50318;54.760;9.408;2023-02-23T05:02:50;100679.94;;;11.63;72.79
64066;BME280;50318;54.760;9.408;2023-02-23T05:05:17;100675.34;;;11.60;72.51
64066;BME280;50318;54.760;9.408;2023-02-23T05:07:43;100683.00;;;11.65;72.55
64066;BME280;50318;54.760;9.408;2023-02-23T05:10:10;100682.97;;;11.56;72.32
64066;BME280;50318;54.760;9.408;2023-02-23T05:12:36;100677.16;;;11.54;72.64
64066;BME280;50318;54.760;9.408;2023-02-23T05:15:03;100678.09;;;11.51;72.30
64066;BME280;50318;54.760;9.408;2023-02-23T05:17:29;100669.53;;;11.49;72.48
64066;BME280;50318;54.760;9.408;2023-02-23T05:19:55;100678.53;;;11.59;72.29
64066;BME280;50318;54.760;9.408;2023-02-23T05:22:24;100675.66;;;11.62;72.18
64066;BME280;50318;54.760;9.408;2023-02-23T05:24:50;100684.34;;;11.70;72.33
64066;BME280;50318;54.760;9.408;2023-02-23T05:27:17;100689.41;;;11.72;72.17
64066;BME280;50318;54.760;9.408;2023-02-23T05:29:43;100679.31;;;11.68;72.00
64066;BME280;50318;54.760;9.408;2023-02-23T05:32:10;100687.88;;;11.71;71.82
64066;BME280;50318;54.760;9.408;2023-02-23T05:34:36;100684.50;;;11.66;71.66
64066;BME280;50318;54.760;9.408;2023-02-23T05:37:02;100690.16;;;11.63;71.74
64066;BME280;50318;54.760;9.408;2023-02-23T05:39:31;100698.25;;;11.66;71.82
64066;BME280;50318;54.760;9.408;2023-02-23T05:41:57;100684.03;;;11.59;71.78
64066;BME280;50318;54.760;9.408;2023-02-23T05:44:23;100686.47;;;11.57;71.68
64066;BME280;50318;54.760;9.408;2023-02-23T05:46:50;100680.53;;;11.58;71.95
64066;BME280;50318;54.760;9.408;2023-02-23T05:49:17;100696.41;;;11.63;71.78
64066;BME280;50318;54.760;9.408;2023-02-23T05:51:43;100676.84;;;11.52;71.62
64066;BME280;50318;54.760;9.408;2023-02-23T05:54:09;100690.75;;;11.58;71.42
64066;BME280;50318;54.760;9.408;2023-02-23T05:56:36;100694.41;;;11.55;71.53
64066;BME280;50318;54.760;9.408;2023-02-23T05:59:02;100691.50;;;11.49;71.45
64066;BME280;50318;54.760;9.408;2023-02-23T06:01:28;100686.94;;;11.46;71.92
64066;BME280;50318;54.760;9.408;2023-02-23T06:03:55;100674.88;;;11.44;71.65
64066;BME280;50318;54.760;9.408;2023-02-23T06:06:22;100687.53;;;11.50;72.02
64066;BME280;50318;54.760;9.408;2023-02-23T06:08:48;100689.84;;;11.52;72.05
64066;BME280;50318;54.760;9.408;2023-02-23T06:11:14;100687.25;;;11.48;72.17
64066;BME280;50318;54.760;9.408;2023-02-23T06:13:41;100689.97;;;11.48;71.60
64066;BME280;50318;54.760;9.408;2023-02-23T06:16:07;100692.44;;;11.46;71.83
64066;BME280;50318;54.760;9.408;2023-02-23T06:18:33;100694.41;;;11.36;71.91
64066;BME280;50318;54.760;9.408;2023-02-23T06:21:01;100683.84;;;11.26;72.01
64066;BME280;50318;54.760;9.408;2023-02-23T06:23:29;100700.47;;;11.31;71.90
64066;BME280;50318;54.760;9.408;2023-02-23T06:25:55;100704.28;;;11.25;72.41
64066;BME280;50318;54.760;9.408;2023-02-23T06:28:22;100695.28;;;11.24;71.88
64066;BME280;50318;54.760;9.408;2023-02-23T06:30:51;100696.50;;;11.23;72.17
64066;BME280;50318;54.760;9.408;2023-02-23T06:33:18;100691.63;;;11.18;72.21
64066;BME280;50318;54.760;9.408;2023-02-23T06:35:45;100703.34;;;11.19;72.38
64066;BME280;50318;54.760;9.408;2023-02-23T06:38:12;100704.41;;;11.12;72.52
64066;BME280;50318;54.760;9.408;2023-02-23T06:40:38;100711.25;;;11.07;72.63
64066;BME280;50318;54.760;9.408;2023-02-23T06:43:05;100698.72;;;11.06;72.80
64066;BME280;50318;54.760;9.408;2023-02-23T06:45:31;100712.06;;;11.17;72.75
64066;BME280;50318;54.760;9.408;2023-02-23T06:47:58;100708.53;;;11.17;72.51
64066;BME280;50318;54.760;9.408;2023-02-23T06:50:24;100711.91;;;11.21;72.64
64066;BME280;50318;54.760;9.408;2023-02-23T06:52:50;100709.31;;;11.17;72.43
64066;BME280;50318;54.760;9.408;2023-02-23T06:55:17;100718.63;;;11.20;72.59
64066;BME280;50318;54.760;9.408;2023-02-23T06:57:43;100729.91;;;11.22;72.50
64066;BME280;50318;54.760;9.408;2023-02-23T07:00:11;100727.25;;;11.09;72.73
64066;BME280;50318;54.760;9.408;2023-02-23T07:02:38;100732.13;;;11.05;72.62
64066;BME280;50318;54.760;9.408;2023-02-23T07:05:05;100726.78;;;11.01;72.54
64066;BME280;50318;54.760;9.408;2023-02-23T07:07:34;100734.28;;;11.10;72.43
64066;BME280;50318;54.760;9.408;2023-02-23T07:10:00;100750.75;;;11.10;72.09
64066;BME280;50318;54.760;9.408;2023-02-23T07:12:27;100751.78;;;11.03;72.68
64066;BME280;50318;54.760;9.408;2023-02-23T07:14:53;100757.44;;;11.09;72.44
64066;BME280;50318;54.760;9.408;2023-02-23T07:17:19;100754.91;;;11.15;72.34
64066;BME280;50318;54.760;9.408;2023-02-23T07:19:45;100753.22;;;11.17;72.40
64066;BME280;50318;54.760;9.408;2023-02-23T07:22:12;100744.09;;;11.20;72.21
64066;BME280;50318;54.760;9.408;2023-02-23T07:24:38;100743.63;;;11.22;71.83
64066;BME280;50318;54.760;9.408;2023-02-23T07:27:04;100747.28;;;11.19;71.78
64066;BME280;50318;54.760;9.408;2023-02-23T07:29:31;100751.84;;;11.13;71.72
64066;BME280;50318;54.760;9.408;2023-02-23T07:31:57;100748.34;;;11.21;71.81
64066;BME280;50318;54.760;9.408;2023-02-23T07:34:23;100749.13;;;11.22;71.48
64066;BME280;50318;54.760;9.408;2023-02-23T07:36:49;100749.28;;;11.27;71.44
64066;BME280;50318;54.760;9.408;2023-02-23T07:39:15;100754.31;;;11.29;71.33
64066;BME280;50318;54.760;9.408;2023-02-23T07:41:42;100743.94;;;11.24;71.51
64066;BME280;50318;54.760;9.408;2023-02-23T07:44:17;100751.88;;;11.31;71.25
64066;BME280;50318;54.760;9.408;2023-02-23T07:46:43;100756.63;;;11.30;71.76
64066;BME280;50318;54.760;9.408;2023-02-23T07:49:10;100762.28;;;11.36;71.29
64066;BME280;50318;54.760;9.408;2023-02-23T07:51:37;100755.91;;;11.39;71.33
64066;BME280;50318;54.760;9.408;2023-02-23T07:54:04;100767.81;;;11.45;71.22
64066;BME280;50318;54.760;9.408;2023-02-23T07:56:31;100773.31;;;11.45;71.47
64066;BME280;50318;54.760;9.408;2023-02-23T07:58:58;100770.84;;;11.47;70.76
64066;BME280;50318;54.760;9.408;2023-02-23T08:01:24;100770.56;;;11.45;70.93
64066;BME280;50318;54.760;9.408;2023-02-23T08:03:50;100770.25;;;11.43;71.01
64066;BME280;50318;54.760;9.408;2023-02-23T08:06:18;100775.91;;;11.49;70.87
64066;BME280;50318;54.760;9.408;2023-02-23T08:08:44;100783.69;;;11.50;70.97
64066;BME280;50318;54.760;9.408;2023-02-23T08:11:11;100783.38;;;11.48;70.68
64066;BME280;50318;54.760;9.408;2023-02-23T08:13:37;100787.97;;;11.51;70.71
64066;BME280;50318;54.760;9.408;2023-02-23T08:16:07;100768.41;;;11.49;70.75
64066;BME280;50318;54.760;9.408;2023-02-23T08:18:33;100780.00;;;11.44;70.60
64066;BME280;50318;54.760;9.408;2023-02-23T08:21:01;100775.16;;;11.57;70.58
64066;BME280;50318;54.760;9.408;2023-02-23T08:23:29;100776.06;;;11.54;70.54
64066;BME280;50318;54.760;9.408;2023-02-23T08:25:56;100775.47;;;11.59;70.68
64066;BME280;50318;54.760;9.408;2023-02-23T08:28:22;100770.75;;;11.69;70.24
64066;BME280;50318;54.760;9.408;2023-02-23T08:30:48;100766.03;;;11.69;70.25
64066;BME280;50318;54.760;9.408;2023-02-23T08:33:14;100774.31;;;11.79;70.28
64066;BME280;50318;54.760;9.408;2023-02-23T08:35:41;100772.16;;;11.83;70.16
64066;BME280;50318;54.760;9.408;2023-02-23T08:38:07;100776.63;;;11.89;70.05
64066;BME280;50318;54.760;9.408;2023-02-23T08:40:33;100785.63;;;11.90;69.62
64066;BME280;50318;54.760;9.408;2023-02-23T08:42:59;100776.94;;;11.91;69.50
64066;BME280;50318;54.760;9.408;2023-02-23T08:45:25;100794.94;;;11.92;69.30
64066;BME280;50318;54.760;9.408;2023-02-23T08:47:53;100796.28;;;11.79;69.39
64066;BME280;50318;54.760;9.408;2023-02-23T08:50:21;100792.91;;;11.75;69.05
64066;BME280;50318;54.760;9.408;2023-02-23T08:52:47;100789.53;;;11.71;69.33
64066;BME280;50318;54.760;9.408;2023-02-23T08:55:13;100795.66;;;11.75;69.61
64066;BME280;50318;54.760;9.408;2023-02-23T08:57:43;100787.72;;;11.77;69.81
64066;BME280;50318;54.760;9.408;2023-02-23T09:00:09;100784.94;;;11.67;69.42
64066;BME280;50318;54.760;9.408;2023-02-23T09:02:36;100778.66;;;11.49;70.17
64066;BME280;50318;54.760;9.408;2023-02-23T09:05:03;100783.28;;;11.61;70.08
64066;BME280;50318;54.760;9.408;2023-02-23T09:07:29;100782.00;;;11.53;69.99
64066;BME280;50318;54.760;9.408;2023-02-23T09:09:56;100777.94;;;11.66;70.23
64066;BME280;50318;54.760;9.408;2023-02-23T09:12:23;100790.44;;;11.67;70.01
64066;BME280;50318;54.760;9.408;2023-02-23T09:14:50;100779.72;;;11.51;70.33
64066;BME280;50318;54.760;9.408;2023-02-23T09:17:17;100786.78;;;11.61;69.85
64066;BME280;50318;54.760;9.408;2023-02-23T09:19:43;100784.03;;;11.71;70.25
64066;BME280;50318;54.760;9.408;2023-02-23T09:22:10;100786.78;;;11.71;70.10
64066;BME280;50318;54.760;9.408;2023-02-23T09:24:36;100782.97;;;11.68;70.38
64066;BME280;50318;54.760;9.408;2023-02-23T09:27:03;100775.16;;;11.57;70.18
64066;BME280;50318;54.760;9.408;2023-02-23T09:29:29;100791.06;;;11.72;70.19
64066;BME280;50318;54.760;9.408;2023-02-23T09:31:55;100789.53;;;11.61;70.18
64066;BME280;50318;54.760;9.408;2023-02-23T09:34:22;100790.41;;;11.49;70.02
64066;BME280;50318;54.760;9.408;2023-02-23T09:36:48;100811.44;;;11.43;70.34
64066;BME280;50318;54.760;9.408;2023-02-23T09:39:14;100804.13;;;11.40;70.53
64066;BME280;50318;54.760;9.408;2023-02-23T09:49:46;100813.19;;;11.19;71.13
64066;BME280;50318;54.760;9.408;2023-02-23T09:52:23;100815.78;;;11.22;71.29
64066;BME280;50318;54.760;9.408;2023-02-23T09:54:50;100778.66;;;11.08;71.39
64066;BME280;50318;54.760;9.408;2023-02-23T09:57:20;100812.91;;;11.35;71.26
64066;BME280;50318;54.760;9.408;2023-02-23T09:59:48;100821.06;;;11.48;71.08
64066;BME280;50318;54.760;9.408;2023-02-23T10:03:07;100818.78;;;11.46;70.88
64066;BME280;50318;54.760;9.408;2023-02-23T10:05:46;100822.34;;;11.25;70.93
64066;BME280;50318;54.760;9.408;2023-02-23T10:10:51;100827.53;;;11.23;71.70
64066;BME280;50318;54.760;9.408;2023-02-23T10:16:20;100828.59;;;11.65;71.38
64066;BME280;50318;54.760;9.408;2023-02-23T10:18:55;100822.22;;;11.78;70.86
64066;BME280;50318;54.760;9.408;2023-02-23T10:21:37;100817.16;;;11.76;70.03
64066;BME280;50318;54.760;9.408;2023-02-23T10:24:20;100813.94;;;11.59;69.62
64066;BME280;50318;54.760;9.408;2023-02-23T10:27:04;100824.06;;;11.81;69.76
64066;BME280;50318;54.760;9.408;2023-02-23T10:29:59;100818.91;;;11.92;69.39
64066;BME280;50318;54.760;9.408;2023-02-23T10:32:44;100821.38;;;11.90;69.03
64066;BME280;50318;54.760;9.408;2023-02-23T10:35:15;100815.94;;;11.77;69.27
64066;BME280;50318;54.760;9.408;2023-02-23T10:37:44;100828.84;;;11.89;68.99
64066;BME280;50318;54.760;9.408;2023-02-23T10:40:23;100829.16;;;12.01;68.86
64066;BME280;50318;54.760;9.408;2023-02-23T10:42:51;100825.38;;;12.07;68.86
64066;BME280;50318;54.760;9.408;2023-02-23T10:45:21;100825.81;;;12.24;69.07
64066;BME280;50318;54.760;9.408;2023-02-23T10:48:05;100829.94;;;12.38;68.23
64066;BME280;50318;54.760;9.408;2023-02-23T10:50:38;100818.50;;;12.39;68.42
64066;BME280;50318;54.760;9.408;2023-02-23T10:53:13;100824.00;;;12.39;67.94
64066;BME280;50318;54.760;9.408;2023-02-23T10:55:45;100826.75;;;12.57;67.63
64066;BME280;50318;54.760;9.408;2023-02-23T10:58:17;100820.44;;;12.66;67.51
64066;BME280;50318;54.760;9.408;2023-02-23T11:03:25;100819.81;;;12.80;66.61
64066;BME280;50318;54.760;9.408;2023-02-23T11:05:52;100823.94;;;12.76;66.56
64066;BME280;50318;54.760;9.408;2023-02-23T11:08:29;100834.34;;;12.72;66.74
64066;BME280;50318;54.760;9.408;2023-02-23T11:13:39;100820.75;;;12.68;66.67
64066;BME280;50318;54.760;9.408;2023-02-23T11:16:09;100836.97;;;12.66;66.77
64066;BME280;50318;54.760;9.408;2023-02-23T11:18:37;100825.66;;;12.64;66.53
64066;BME280;50318;54.760;9.408;2023-02-23T11:21:09;100823.69;;;12.55;66.60
64066;BME280;50318;54.760;9.408;2023-02-23T11:23:37;100821.06;;;12.52;66.75
64066;BME280;50318;54.760;9.408;2023-02-23T11:28:54;100829.34;;;12.34;67.52
64066;BME280;50318;54.760;9.408;2023-02-23T11:31:29;100823.53;;;12.22;67.23
64066;BME280;50318;54.760;9.408;2023-02-23T11:33:57;100818.34;;;12.15;67.87
64066;BME280;50318;54.760;9.408;2023-02-23T11:36:29;100818.66;;;12.08;68.27
64066;BME280;50318;54.760;9.408;2023-02-23T11:41:44;100826.28;;;12.13;68.74
64066;BME280;50318;54.760;9.408;2023-02-23T11:44:20;100811.31;;;12.33;68.07
64066;BME280;50318;54.760;9.408;2023-02-23T11:46:46;100812.84;;;12.34;67.47
64066;BME280;50318;54.760;9.408;2023-02-23T11:49:29;100815.88;;;12.45;67.19
64066;BME280;50318;54.760;9.408;2023-02-23T11:51:57;100807.63;;;12.45;66.94
64066;BME280;50318;54.760;9.408;2023-02-23T11:54:31;100807.94;;;12.47;66.87
64066;BME280;50318;54.760;9.408;2023-02-23T11:56:59;100795.09;;;12.44;67.12
64066;BME280;50318;54.760;9.408;2023-02-23T11:59:37;100808.88;;;12.35;66.91
64066;BME280;50318;54.760;9.408;2023-02-23T12:04:59;100808.88;;;12.35;66.14
64066;BME280;50318;54.760;9.408;2023-02-23T12:07:39;100809.31;;;12.24;66.53
64066;BME280;50318;54.760;9.408;2023-02-23T12:10:15;100812.53;;;12.22;66.39
64066;BME280;50318;54.760;9.408;2023-02-23T12:16:06;100807.63;;;11.99;66.85
64066;BME280;50318;54.760;9.408;2023-02-23T12:18:56;100819.06;;;11.97;66.73
64066;BME280;50318;54.760;9.408;2023-02-23T12:24:14;100805.41;;;11.66;67.66
64066;BME280;50318;54.760;9.408;2023-02-23T12:26:57;100801.03;;;11.78;67.42
64066;BME280;50318;54.760;9.408;2023-02-23T12:32:13;100794.50;;;12.21;67.12
64066;BME280;50318;54.760;9.408;2023-02-23T12:40:06;100787.59;;;12.63;67.12
64066;BME280;50318;54.760;9.408;2023-02-23T12:51:13;100797.00;;;12.89;64.38
64066;BME280;50318;54.760;9.408;2023-02-23T12:53:43;100796.72;;;12.87;64.32
64066;BME280;50318;54.760;9.408;2023-02-23T13:02:42;100801.81;;;12.52;64.02
64066;BME280;50318;54.760;9.408;2023-02-23T13:13:24;100804.59;;;12.15;65.14
64066;BME280;50318;54.760;9.408;2023-02-23T13:16:08;100803.66;;;12.00;65.77
64066;BME280;50318;54.760;9.408;2023-02-23T13:18:50;100797.09;;;11.88;65.93
64066;BME280;50318;54.760;9.408;2023-02-23T13:21:39;100800.91;;;11.91;66.14
64066;BME280;50318;54.760;9.408;2023-02-23T13:24:13;100798.47;;;11.84;66.56
64066;BME280;50318;54.760;9.408;2023-02-23T13:32:04;100804.44;;;11.51;66.47
64066;BME280;50318;54.760;9.408;2023-02-23T13:34:38;100804.47;;;11.60;66.44
64066;BME280;50318;54.760;9.408;2023-02-23T13:37:07;100804.34;;;11.73;65.70
64066;BME280;50318;54.760;9.408;2023-02-23T13:42:19;100796.25;;;11.60;64.51
64066;BME280;50318;54.760;9.408;2023-02-23T13:45:15;100810.59;;;11.74;63.45
64066;BME280;50318;54.760;9.408;2023-02-23T13:47:48;100805.09;;;11.74;62.83
64066;BME280;50318;54.760;9.408;2023-02-23T13:52:52;100813.66;;;11.66;62.17
64066;BME280;50318;54.760;9.408;2023-02-23T14:00:20;100809.03;;;11.54;61.43
64066;BME280;50318;54.760;9.408;2023-02-23T14:02:48;100813.59;;;11.48;60.57
64066;BME280;50318;54.760;9.408;2023-02-23T14:05:18;100826.69;;;11.44;60.28
64066;BME280;50318;54.760;9.408;2023-02-23T14:07:58;100826.72;;;11.53;60.55
64066;BME280;50318;54.760;9.408;2023-02-23T14:10:37;100816.31;;;11.39;58.87
64066;BME280;50318;54.760;9.408;2023-02-23T14:15:41;100823.91;;;11.35;57.37
64066;BME280;50318;54.760;9.408;2023-02-23T14:20:54;100824.34;;;11.24;56.63
64066;BME280;50318;54.760;9.408;2023-02-23T14:26:12;100832.13;;;11.26;56.28
64066;BME280;50318;54.760;9.408;2023-02-23T14:28:38;100828.81;;;11.09;56.13
64066;BME280;50318;54.760;9.408;2023-02-23T14:31:25;100826.00;;;10.91;56.43
64066;BME280;50318;54.760;9.408;2023-02-23T14:33:58;100837.03;;;11.00;55.90
64066;BME280;50318;54.760;9.408;2023-02-23T14:44:27;100834.69;;;10.67;56.17
64066;BME280;50318;54.760;9.408;2023-02-23T14:47:14;100829.66;;;10.66;56.64
64066;BME280;50318;54.760;9.408;2023-02-23T14:49:44;100839.59;;;10.51;57.03
64066;BME280;50318;54.760;9.408;2023-02-23T14:52:41;100824.63;;;10.42;55.87
64066;BME280;50318;54.760;9.408;2023-02-23T14:57:39;100827.09;;;10.50;56.92
64066;BME280;50318;54.760;9.408;2023-02-23T15:02:37;100832.22;;;10.13;55.16
64066;BME280;50318;54.760;9.408;2023-02-23T15:05:16;100833.69;;;10.05;55.60
64066;BME280;50318;54.760;9.408;2023-02-23T15:07:43;100835.22;;;10.06;54.87
64066;BME280;50318;54.760;9.408;2023-02-23T15:10:27;100828.13;;;9.96;55.02
64066;BME280;50318;54.760;9.408;2023-02-23T15:12:54;100830.66;;;9.90;55.39
64066;BME280;50318;54.760;9.408;2023-02-23T15:15:25;100834.91;;;9.91;55.53
64066;BME280;50318;54.760;9.408;2023-02-23T15:17:58;100833.75;;;9.79;55.06
64066;BME280;50318;54.760;9.408;2023-02-23T15:20:30;100843.72;;;9.73;54.84
64066;BME280;50318;54.760;9.408;2023-02-23T15:23:03;100836.81;;;9.69;54.92
64066;BME280;50318;54.760;9.408;2023-02-23T15:25:35;100836.19;;;9.39;55.07